createdAt,value
2023-09-29T00:01:37.075Z,81.00
2023-09-29T00:04:07.556Z,81.01
2023-09-29T00:06:34.206Z,81.15
2023-09-29T00:09:01.730Z,80.72
2023-09-29T00:11:31.943Z,80.61
2023-09-29T00:13:58.849Z,80.61
2023-09-29T00:16:25.202Z,80.44
2023-09-29T00:18:51.681Z,80.59
2023-09-29T00:21:18.198Z,80.19
2023-09-29T00:23:44.626Z,80.46
2023-09-29T00:26:11.206Z,80.36
2023-09-29T00:28:37.672Z,80.09
2023-09-29T00:31:07.110Z,80.43
2023-09-29T00:33:33.802Z,80.17
2023-09-29T00:36:03.435Z,79.99
2023-09-29T00:38:30.055Z,80.32
2023-09-29T00:40:56.982Z,80.38
2023-09-29T00:43:23.522Z,80.29
2023-09-29T00:45:50.590Z,80.30
2023-09-29T00:48:18.375Z,80.10
2023-09-29T00:50:46.125Z,80.33
2023-09-29T00:53:15.733Z,80.49
2023-09-29T00:55:45.356Z,80.30
2023-09-29T00:58:14.243Z,80.21
2023-09-29T01:00:42.237Z,80.36
2023-09-29T01:03:12.336Z,80.58
2023-09-29T01:05:43.026Z,80.30
2023-09-29T01:08:13.893Z,80.67
2023-09-29T01:10:41.800Z,80.55
2023-09-29T01:13:09.798Z,80.43
2023-09-29T01:15:37.705Z,80.64
2023-09-29T01:18:05.114Z,80.68
2023-09-29T01:20:32.103Z,80.86
2023-09-29T01:23:04.912Z,80.50
2023-09-29T01:25:31.725Z,80.50
2023-09-29T01:27:58.072Z,80.23
2023-09-29T01:30:25.864Z,80.66
2023-09-29T01:32:54.197Z,80.49
2023-09-29T01:35:25.229Z,80.59
2023-09-29T01:37:56.431Z,80.66
2023-09-29T01:40:23.767Z,80.49
2023-09-29T01:42:51.553Z,80.61
2023-09-29T01:45:19.000Z,80.71
2023-09-29T01:47:50.193Z,80.69
2023-09-29T01:50:19.673Z,80.72
2023-09-29T01:52:47.766Z,80.58
2023-09-29T01:55:22.804Z,80.26
2023-09-29T01:57:50.542Z,80.50
2023-09-29T02:00:25.429Z,80.70
2023-09-29T02:05:20.715Z,80.86
2023-09-29T02:07:48.452Z,80.69
2023-09-29T02:10:20.153Z,80.83
2023-09-29T02:12:50.331Z,80.47
2023-09-29T02:15:17.968Z,80.71
2023-09-29T02:17:45.884Z,80.83
2023-09-29T02:20:32.097Z,80.85
2023-09-29T02:23:00.467Z,80.66
2023-09-29T02:25:27.596Z,80.52
2023-09-29T02:27:55.185Z,80.55
2023-09-29T02:30:21.721Z,80.76
2023-09-29T02:32:48.361Z,80.61
2023-09-29T02:35:14.808Z,80.68
2023-09-29T02:37:42.543Z,80.75
2023-09-29T02:40:13.124Z,80.68
2023-09-29T02:42:40.535Z,80.67
2023-09-29T02:45:08.103Z,80.81
2023-09-29T02:47:36.474Z,80.95
2023-09-29T02:50:04.188Z,80.43
2023-09-29T02:52:31.027Z,80.66
2023-09-29T02:54:57.462Z,80.76
2023-09-29T02:57:24.200Z,80.56
2023-09-29T02:59:50.802Z,80.75
2023-09-29T03:02:17.527Z,80.77
2023-09-29T03:04:44.748Z,80.66
2023-09-29T03:07:11.240Z,80.56
2023-09-29T03:09:37.894Z,80.69
2023-09-29T03:12:04.791Z,80.18
2023-09-29T03:14:31.420Z,80.39
2023-09-29T03:17:01.737Z,80.54
2023-09-29T03:19:29.138Z,80.72
2023-09-29T03:21:55.597Z,80.45
2023-09-29T03:24:23.161Z,80.70
2023-09-29T03:26:50.455Z,80.50
2023-09-29T03:29:18.906Z,80.65
2023-09-29T03:31:47.817Z,80.31
2023-09-29T03:34:17.571Z,80.65
2023-09-29T03:36:44.103Z,80.53
2023-09-29T03:39:10.956Z,80.61
2023-09-29T03:41:37.594Z,80.33
2023-09-29T03:44:04.299Z,80.39
2023-09-29T03:46:30.741Z,80.31
2023-09-29T03:48:57.398Z,80.17
2023-09-29T03:51:25.289Z,80.35
2023-09-29T03:53:57.035Z,80.42
2023-09-29T03:56:24.403Z,80.21
2023-09-29T03:58:51.772Z,80.83
2023-09-29T04:01:18.646Z,81.22
2023-09-29T04:03:45.328Z,81.10
2023-09-29T04:06:12.586Z,81.21
2023-09-29T04:08:40.089Z,81.18
2023-09-29T04:11:07.137Z,81.30
2023-09-29T04:13:34.596Z,81.02
2023-09-29T04:16:07.784Z,81.42
2023-09-29T04:18:34.378Z,81.22
2023-09-29T04:21:03.936Z,81.35
2023-09-29T04:23:30.842Z,81.15
2023-09-29T04:25:57.290Z,81.33
2023-09-29T04:28:23.719Z,81.46
2023-09-29T04:30:50.381Z,81.24
2023-09-29T04:33:16.994Z,81.33
2023-09-29T04:35:44.712Z,81.22
2023-09-29T04:38:11.965Z,81.26
2023-09-29T04:40:39.230Z,81.48
2023-09-29T04:43:06.698Z,81.59
2023-09-29T04:45:35.283Z,81.65
2023-09-29T04:48:02.727Z,81.27
2023-09-29T04:50:30.459Z,81.72
2023-09-29T04:52:57.015Z,81.56
2023-09-29T04:55:23.434Z,81.70
2023-09-29T04:57:53.385Z,82.34
2023-09-29T05:00:20.024Z,82.95
2023-09-29T05:02:46.821Z,82.85
2023-09-29T05:05:13.882Z,83.71
2023-09-29T05:07:41.082Z,83.81
2023-09-29T05:10:08.153Z,84.05
2023-09-29T05:12:35.373Z,84.08
2023-09-29T05:15:02.069Z,84.35
2023-09-29T05:17:44.319Z,84.41
2023-09-29T05:20:15.326Z,84.83
2023-09-29T05:22:41.868Z,84.39
2023-09-29T05:25:09.029Z,84.68
2023-09-29T05:27:35.692Z,84.74
2023-09-29T05:30:04.001Z,84.98
2023-09-29T05:32:32.294Z,85.02
2023-09-29T05:34:59.101Z,85.45
2023-09-29T05:37:25.506Z,85.23
2023-09-29T05:39:52.030Z,85.76
2023-09-29T05:42:27.921Z,85.37
2023-09-29T05:45:00.234Z,85.79
2023-09-29T05:47:27.003Z,85.63
2023-09-29T05:50:00.139Z,85.86
2023-09-29T05:52:37.818Z,86.06
2023-09-29T05:55:04.467Z,86.21
2023-09-29T05:57:31.375Z,86.22
2023-09-29T05:59:58.098Z,86.12
2023-09-29T06:02:24.606Z,86.13
2023-09-29T06:04:51.113Z,85.90
2023-09-29T06:07:18.270Z,85.93
2023-09-29T06:09:44.677Z,86.24
2023-09-29T06:12:11.286Z,85.95
2023-09-29T06:14:38.456Z,86.40
2023-09-29T06:17:04.953Z,86.11
2023-09-29T06:19:31.646Z,86.43
2023-09-29T06:21:58.061Z,85.86
2023-09-29T06:24:24.666Z,86.25
2023-09-29T06:26:51.480Z,86.23
2023-09-29T06:29:17.920Z,86.54
2023-09-29T06:31:44.330Z,86.70
2023-09-29T06:34:10.682Z,86.62
2023-09-29T06:36:37.237Z,86.54
2023-09-29T06:39:03.729Z,86.73
2023-09-29T06:41:30.085Z,86.93
2023-09-29T06:43:56.568Z,86.63
2023-09-29T06:46:23.212Z,86.75
2023-09-29T06:48:49.698Z,86.82
2023-09-29T06:51:16.131Z,86.75
2023-09-29T06:53:42.910Z,86.79
2023-09-29T06:56:09.406Z,86.53
2023-09-29T06:58:35.804Z,86.50
2023-09-29T07:01:03.034Z,86.78
2023-09-29T07:03:33.701Z,86.83
2023-09-29T07:06:02.084Z,87.01
2023-09-29T07:08:29.356Z,87.11
2023-09-29T07:10:56.554Z,86.86
2023-09-29T07:13:23.040Z,86.86
2023-09-29T07:15:50.000Z,87.06
2023-09-29T07:18:17.836Z,86.84
2023-09-29T07:20:44.932Z,86.86
2023-09-29T07:23:11.499Z,86.86
2023-09-29T07:25:39.061Z,86.95
2023-09-29T07:28:08.635Z,87.21
2023-09-29T07:30:35.027Z,87.13
2023-09-29T07:33:01.581Z,87.01
2023-09-29T07:35:29.341Z,86.61
2023-09-29T07:37:56.184Z,86.79
2023-09-29T07:40:22.554Z,86.83
2023-09-29T07:42:48.977Z,86.50
2023-09-29T07:45:15.533Z,86.51
2023-09-29T07:47:42.783Z,86.15
2023-09-29T07:50:10.192Z,86.09
2023-09-29T07:52:39.069Z,86.23
2023-09-29T07:55:06.785Z,86.07
2023-09-29T07:57:33.472Z,86.09
2023-09-29T08:00:00.262Z,85.68
2023-09-29T08:02:28.149Z,85.83
2023-09-29T08:04:54.607Z,85.94
2023-09-29T08:07:21.037Z,85.76
2023-09-29T08:09:49.815Z,86.18
2023-09-29T08:12:16.570Z,85.89
2023-09-29T08:14:42.969Z,85.99
2023-09-29T08:17:09.537Z,86.14
2023-09-29T08:19:35.932Z,86.49
2023-09-29T08:22:03.793Z,86.26
2023-09-29T08:24:33.943Z,86.16
2023-09-29T08:27:01.755Z,86.22
2023-09-29T08:29:28.339Z,86.04
2023-09-29T08:31:59.277Z,85.92
2023-09-29T08:34:26.110Z,85.72
2023-09-29T08:36:53.336Z,85.88
2023-09-29T08:39:21.032Z,85.32
2023-09-29T08:41:57.385Z,85.34
2023-09-29T08:44:28.472Z,84.65
2023-09-29T08:47:01.324Z,84.79
2023-09-29T08:49:39.388Z,84.54
2023-09-29T08:52:11.333Z,84.09
2023-09-29T08:54:39.067Z,83.95
2023-09-29T08:57:06.559Z,83.54
2023-09-29T08:59:34.779Z,83.00
2023-09-29T09:02:01.357Z,82.82
2023-09-29T09:04:29.353Z,82.71
2023-09-29T09:06:55.995Z,82.47
2023-09-29T09:09:24.345Z,82.15
2023-09-29T09:11:50.977Z,81.82
2023-09-29T09:14:17.457Z,81.28
2023-09-29T09:16:46.184Z,81.45
2023-09-29T09:19:14.016Z,80.90
2023-09-29T09:21:42.509Z,80.54
2023-09-29T09:24:20.109Z,81.26
2023-09-29T09:26:47.956Z,80.96
2023-09-29T09:29:18.319Z,81.07
2023-09-29T09:31:54.110Z,81.00
2023-09-29T09:34:20.557Z,80.91
2023-09-29T09:36:55.517Z,81.38
2023-09-29T09:39:25.865Z,81.60
2023-09-29T09:41:54.690Z,81.60
2023-09-29T09:44:22.885Z,81.67
2023-09-29T09:47:01.972Z,81.55
2023-09-29T09:49:42.894Z,81.45
2023-09-29T09:52:13.636Z,81.31
2023-09-29T09:54:46.967Z,81.59
2023-09-29T09:57:21.584Z,81.22
2023-09-29T09:59:49.366Z,80.90
2023-09-29T10:02:19.366Z,81.15
2023-09-29T10:04:48.846Z,81.39
2023-09-29T10:07:15.799Z,80.89
2023-09-29T10:09:46.980Z,81.13
2023-09-29T10:12:26.994Z,81.12
2023-09-29T10:14:53.561Z,80.93
2023-09-29T10:17:21.676Z,80.86
2023-09-29T10:19:52.417Z,81.36
2023-09-29T10:22:24.053Z,81.75
2023-09-29T10:24:50.536Z,81.66
2023-09-29T10:27:34.447Z,81.48
2023-09-29T10:30:20.097Z,81.46
2023-09-29T10:32:50.099Z,81.76
2023-09-29T10:35:21.815Z,82.15
2023-09-29T10:37:56.222Z,81.93
2023-09-29T10:40:33.147Z,82.71
2023-09-29T10:43:03.852Z,83.29
2023-09-29T10:45:37.586Z,84.38
2023-09-29T10:48:08.939Z,84.56
2023-09-29T10:50:42.392Z,84.32
2023-09-29T10:53:09.598Z,84.02
2023-09-29T10:55:49.724Z,84.26
2023-09-29T10:58:19.358Z,84.12
2023-09-29T11:00:50.656Z,84.58
2023-09-29T11:03:24.105Z,84.57
2023-09-29T11:05:55.257Z,84.84
2023-09-29T11:08:30.693Z,84.81
2023-09-29T11:11:04.485Z,84.69
2023-09-29T11:13:32.274Z,84.71
2023-09-29T11:16:00.479Z,85.41
2023-09-29T11:18:28.031Z,86.05
2023-09-29T11:20:54.559Z,87.00
2023-09-29T11:23:21.414Z,87.07
2023-09-29T11:25:51.902Z,87.56
2023-09-29T11:28:19.161Z,88.09
2023-09-29T11:30:45.804Z,88.27
2023-09-29T11:33:12.875Z,88.31
2023-09-29T11:35:49.476Z,88.50
2023-09-29T11:38:29.146Z,89.39
2023-09-29T11:40:56.514Z,90.16
2023-09-29T11:43:23.010Z,89.87
2023-09-29T11:45:49.534Z,89.81
2023-09-29T11:48:16.282Z,89.25
2023-09-29T11:50:43.174Z,89.18
2023-09-29T11:53:09.658Z,89.05
2023-09-29T11:55:39.298Z,88.15
2023-09-29T11:58:05.791Z,87.88
2023-09-29T12:00:32.474Z,87.98
2023-09-29T12:03:00.115Z,87.93
2023-09-29T12:05:26.756Z,87.61
2023-09-29T12:07:54.829Z,87.65
2023-09-29T12:10:21.831Z,87.46
2023-09-29T12:12:48.245Z,87.70
2023-09-29T12:15:16.780Z,87.56
2023-09-29T12:17:43.308Z,87.64
2023-09-29T12:20:14.517Z,87.46
2023-09-29T12:22:45.067Z,87.42
2023-09-29T12:25:15.555Z,87.38
2023-09-29T12:27:46.191Z,87.51
2023-09-29T12:30:13.872Z,87.38
2023-09-29T12:32:41.592Z,87.36
2023-09-29T12:35:13.901Z,87.14
2023-09-29T12:37:44.341Z,86.30
2023-09-29T12:40:15.713Z,86.33
2023-09-29T12:42:48.473Z,85.58
2023-09-29T12:45:15.828Z,84.85
2023-09-29T12:47:45.428Z,84.76
2023-09-29T12:50:12.857Z,84.29
2023-09-29T12:52:39.418Z,83.71
2023-09-29T12:55:06.935Z,83.65
2023-09-29T12:57:33.496Z,83.37
2023-09-29T13:00:01.168Z,83.17
2023-09-29T13:02:32.764Z,82.75
2023-09-29T13:05:00.127Z,82.20
2023-09-29T13:07:26.986Z,81.77
2023-09-29T13:09:53.653Z,80.62
2023-09-29T13:12:31.041Z,80.51
2023-09-29T13:14:58.350Z,81.07
2023-09-29T13:17:24.823Z,80.88
2023-09-29T13:19:51.316Z,79.88
2023-09-29T13:22:17.664Z,79.81
2023-09-29T13:24:44.116Z,80.11
2023-09-29T13:27:11.714Z,79.87
2023-09-29T13:29:39.628Z,80.09
2023-09-29T13:32:06.138Z,80.00
2023-09-29T13:34:32.710Z,78.24
2023-09-29T13:37:00.665Z,77.54
2023-09-29T13:39:28.943Z,77.85
2023-09-29T13:41:55.894Z,77.20
2023-09-29T13:44:22.522Z,77.71
2023-09-29T13:47:03.210Z,78.00
2023-09-29T13:49:30.757Z,77.76
2023-09-29T13:51:57.205Z,77.52
2023-09-29T13:54:23.746Z,77.51
2023-09-29T13:56:50.257Z,76.60
2023-09-29T13:59:16.726Z,77.08
2023-09-29T14:01:43.381Z,76.56
2023-09-29T14:04:10.125Z,76.60
2023-09-29T14:06:36.569Z,76.99
2023-09-29T14:09:16.030Z,75.95
2023-09-29T14:11:44.311Z,76.07
2023-09-29T14:14:10.876Z,76.34
2023-09-29T14:16:37.359Z,76.15
2023-09-29T14:19:03.890Z,76.44
2023-09-29T14:21:30.396Z,75.96
2023-09-29T14:23:57.142Z,75.37
2023-09-29T14:26:23.791Z,75.89
2023-09-29T14:28:50.615Z,75.92
2023-09-29T14:31:17.765Z,75.83
2023-09-29T14:33:45.077Z,74.59
2023-09-29T14:36:11.651Z,74.48
2023-09-29T14:38:40.138Z,74.04
2023-09-29T14:41:09.013Z,73.57
2023-09-29T14:43:37.530Z,72.95
2023-09-29T14:46:14.708Z,73.10
2023-09-29T14:48:41.924Z,72.52
2023-09-29T14:51:09.657Z,72.01
2023-09-29T14:53:37.443Z,71.88
2023-09-29T14:56:07.999Z,72.16
2023-09-29T14:58:35.005Z,71.64
2023-09-29T15:01:01.611Z,71.34
2023-09-29T15:03:28.564Z,71.77
2023-09-29T15:05:55.723Z,71.10
2023-09-29T15:08:22.277Z,70.81
2023-09-29T15:10:48.908Z,69.58
2023-09-29T15:13:15.272Z,69.78
2023-09-29T15:15:42.738Z,69.28
2023-09-29T15:18:09.936Z,69.02
2023-09-29T15:20:39.904Z,69.27
2023-09-29T15:23:09.883Z,69.27
2023-09-29T15:25:37.938Z,69.74
2023-09-29T15:28:05.639Z,70.20
2023-09-29T15:30:32.115Z,70.03
2023-09-29T15:32:58.866Z,70.18
2023-09-29T15:35:25.372Z,70.53
2023-09-29T15:37:51.748Z,70.59
2023-09-29T15:40:18.587Z,70.28
2023-09-29T15:42:46.029Z,69.06
2023-09-29T15:45:13.083Z,68.71
2023-09-29T15:47:39.760Z,68.92
2023-09-29T15:50:08.253Z,68.55
2023-09-29T15:52:38.464Z,68.76
2023-09-29T15:55:05.699Z,68.65
2023-09-29T15:57:32.215Z,68.27
2023-09-29T15:59:58.897Z,68.06
2023-09-29T16:02:27.127Z,68.14
2023-09-29T16:04:54.963Z,67.62
2023-09-29T16:07:21.738Z,67.45
2023-09-29T16:09:48.158Z,67.83
2023-09-29T16:12:15.609Z,67.37
2023-09-29T16:14:42.574Z,66.90
2023-09-29T16:17:09.222Z,66.99
2023-09-29T16:19:36.385Z,66.57
2023-09-29T16:22:03.302Z,66.07
2023-09-29T16:24:32.366Z,66.05
2023-09-29T16:26:59.097Z,66.42
2023-09-29T16:29:25.834Z,66.63
2023-09-29T16:31:52.338Z,65.86
2023-09-29T16:34:18.866Z,65.42
2023-09-29T16:36:45.404Z,65.46
2023-09-29T16:39:15.005Z,65.46
2023-09-29T16:41:42.564Z,66.03
2023-09-29T16:44:10.515Z,65.66
2023-09-29T16:46:37.614Z,66.04
2023-09-29T16:49:04.036Z,65.92
2023-09-29T16:51:32.892Z,66.34
2023-09-29T16:54:02.080Z,66.92
2023-09-29T16:56:29.704Z,66.91
2023-09-29T16:58:57.701Z,67.54
2023-09-29T17:01:25.436Z,66.95
2023-09-29T17:03:53.366Z,67.24
2023-09-29T17:06:28.734Z,67.22
2023-09-29T17:08:56.182Z,68.06
2023-09-29T17:11:22.630Z,68.08
2023-09-29T17:13:49.102Z,67.63
2023-09-29T17:16:15.852Z,67.92
2023-09-29T17:18:44.007Z,67.87
2023-09-29T17:21:15.353Z,68.05
2023-09-29T17:23:42.863Z,67.86
2023-09-29T17:26:09.742Z,68.26
2023-09-29T17:28:36.274Z,68.49
2023-09-29T17:31:02.841Z,68.98
2023-09-29T17:33:29.514Z,68.49
2023-09-29T17:35:56.170Z,68.89
2023-09-29T17:38:22.713Z,69.14
2023-09-29T17:40:50.766Z,68.60
2023-09-29T17:43:17.359Z,69.13
2023-09-29T17:45:43.831Z,68.86
2023-09-29T17:48:22.350Z,69.41
2023-09-29T17:50:56.708Z,69.73
2023-09-29T17:53:23.403Z,70.15
2023-09-29T17:55:50.229Z,70.21
2023-09-29T17:58:18.738Z,70.23
2023-09-29T18:00:45.206Z,70.20
2023-09-29T18:03:11.721Z,70.69
2023-09-29T18:05:38.306Z,70.93
2023-09-29T18:08:05.083Z,71.33
2023-09-29T18:10:31.514Z,71.23
2023-09-29T18:12:57.885Z,71.67
2023-09-29T18:15:24.401Z,71.74
2023-09-29T18:17:50.936Z,71.86
2023-09-29T18:20:19.286Z,71.85
2023-09-29T18:22:46.206Z,72.30
2023-09-29T18:25:12.618Z,72.48
2023-09-29T18:27:39.064Z,72.58
2023-09-29T18:30:07.468Z,73.12
2023-09-29T18:32:34.046Z,73.05
2023-09-29T18:35:00.624Z,73.17
2023-09-29T18:37:27.152Z,73.50
2023-09-29T18:39:53.860Z,73.35
2023-09-29T18:42:20.299Z,73.53
2023-09-29T18:44:46.785Z,73.37
2023-09-29T18:47:13.230Z,73.59
2023-09-29T18:49:39.676Z,73.92
2023-09-29T18:52:10.715Z,74.18
2023-09-29T18:54:38.606Z,73.85
2023-09-29T18:57:05.388Z,74.06
2023-09-29T18:59:33.095Z,74.23
2023-09-29T19:02:02.006Z,74.14
2023-09-29T19:04:29.294Z,74.26
2023-09-29T19:06:55.884Z,74.37
2023-09-29T19:09:23.523Z,74.73
2023-09-29T19:11:50.087Z,74.53
2023-09-29T19:14:16.675Z,74.86
2023-09-29T19:16:43.161Z,74.85
2023-09-29T19:19:09.888Z,75.15
2023-09-29T19:21:36.246Z,75.18
2023-09-29T19:24:02.780Z,75.68
2023-09-29T19:26:29.721Z,75.27
2023-09-29T19:28:56.768Z,75.30
2023-09-29T19:31:27.570Z,75.52
2023-09-29T19:33:58.156Z,75.58
2023-09-29T19:36:29.563Z,75.60
2023-09-29T19:38:56.766Z,76.02
2023-09-29T19:41:23.585Z,76.42
2023-09-29T19:43:51.994Z,76.38
2023-09-29T19:46:18.552Z,76.28
2023-09-29T19:48:45.444Z,76.68
2023-09-29T19:51:14.573Z,76.55
2023-09-29T19:53:41.582Z,76.58
2023-09-29T19:56:12.951Z,76.73
2023-09-29T19:58:44.248Z,76.71
2023-09-29T20:01:11.915Z,76.33
2023-09-29T20:03:41.584Z,76.75
2023-09-29T20:06:09.460Z,76.55
2023-09-29T20:08:36.174Z,76.90
2023-09-29T20:11:03.330Z,77.09
2023-09-29T20:13:31.054Z,77.08
2023-09-29T20:16:00.812Z,77.21
2023-09-29T20:18:27.613Z,76.90
2023-09-29T20:20:54.169Z,76.93
2023-09-29T20:23:22.679Z,77.45
2023-09-29T20:25:49.168Z,77.37
2023-09-29T20:28:15.701Z,77.22
2023-09-29T20:30:42.258Z,77.54
2023-09-29T20:33:09.023Z,76.78
2023-09-29T20:35:35.591Z,77.56
2023-09-29T20:38:02.201Z,77.25
2023-09-29T20:40:28.721Z,77.89
2023-09-29T20:42:56.326Z,77.30
2023-09-29T20:45:22.824Z,77.77
2023-09-29T20:47:49.338Z,77.68
2023-09-29T20:50:15.848Z,78.00
2023-09-29T20:52:42.239Z,78.30
2023-09-29T20:55:08.808Z,78.30
2023-09-29T20:57:35.882Z,78.42
2023-09-29T21:00:02.653Z,78.38
2023-09-29T21:02:29.161Z,78.22
2023-09-29T21:04:55.815Z,78.19
2023-09-29T21:07:22.323Z,78.54
2023-09-29T21:09:49.115Z,78.66
2023-09-29T21:12:16.063Z,78.76
2023-09-29T21:14:42.606Z,79.07
2023-09-29T21:17:09.071Z,79.00
2023-09-29T21:19:35.586Z,78.93
2023-09-29T21:22:05.015Z,78.71
2023-09-29T21:24:31.700Z,79.01
2023-09-29T21:26:58.383Z,78.95
2023-09-29T21:29:24.871Z,79.11
2023-09-29T21:31:54.250Z,79.15
2023-09-29T21:34:20.937Z,79.15
2023-09-29T21:36:47.828Z,78.70
2023-09-29T21:39:17.016Z,79.00
2023-09-29T21:41:44.714Z,78.92
2023-09-29T21:44:12.273Z,78.88
2023-09-29T21:46:39.971Z,79.42
2023-09-29T21:49:07.350Z,79.51
2023-09-29T21:51:35.129Z,79.72
2023-09-29T21:54:02.648Z,79.47
2023-09-29T21:56:30.075Z,79.21
2023-09-29T21:58:59.826Z,79.22
2023-09-29T22:01:26.447Z,79.61
2023-09-29T22:03:52.985Z,79.44
2023-09-29T22:06:19.637Z,79.34
2023-09-29T22:08:46.500Z,79.63
2023-09-29T22:11:13.663Z,79.86
2023-09-29T22:13:41.254Z,79.54
2023-09-29T22:16:08.539Z,79.98
2023-09-29T22:18:35.864Z,79.87
2023-09-29T22:21:02.612Z,79.96
2023-09-29T22:23:30.068Z,79.88
2023-09-29T22:25:56.640Z,80.09
2023-09-29T22:28:23.225Z,79.79
2023-09-29T22:30:49.657Z,79.88
2023-09-29T22:33:19.393Z,80.10
2023-09-29T22:35:46.089Z,80.09
2023-09-29T22:38:12.465Z,80.14
2023-09-29T22:40:39.067Z,80.33
2023-09-29T22:43:05.838Z,79.89
2023-09-29T22:45:32.330Z,80.29
2023-09-29T22:48:00.179Z,80.50
2023-09-29T22:50:27.542Z,80.43
2023-09-29T22:52:54.130Z,80.25
2023-09-29T22:55:20.916Z,80.57
2023-09-29T22:57:47.693Z,80.25
2023-09-29T23:00:15.029Z,80.34
2023-09-29T23:02:44.573Z,80.10
2023-09-29T23:05:12.282Z,80.34
2023-09-29T23:07:38.839Z,80.54
2023-09-29T23:10:06.532Z,80.26
2023-09-29T23:12:33.369Z,80.48
2023-09-29T23:15:01.138Z,80.69
2023-09-29T23:17:27.754Z,80.63
2023-09-29T23:19:54.329Z,80.68
2023-09-29T23:22:20.726Z,80.68
2023-09-29T23:24:47.244Z,80.81
2023-09-29T23:27:14.880Z,80.82
2023-09-29T23:29:41.616Z,80.72
2023-09-29T23:32:08.076Z,81.02
2023-09-29T23:34:35.132Z,80.78
2023-09-29T23:37:01.656Z,80.75
2023-09-29T23:39:28.069Z,80.84
2023-09-29T23:41:55.723Z,81.24
2023-09-29T23:44:24.130Z,81.22
2023-09-29T23:46:50.608Z,81.28
2023-09-29T23:49:17.163Z,81.52
2023-09-29T23:51:45.363Z,81.18
2023-09-29T23:54:12.115Z,81.44
2023-09-29T23:56:38.684Z,81.16
2023-09-29T23:59:05.058Z,81.49
